sensor_id;sensor_type;location;lat;lon;timestamp;pressure;altitude;pressure_sealevel;temperature;humidity
7962;BME280;4026;43.652;24.906;2023-02-03T00:01:54;99339.66;;;0.56;100.00
7962;BME280;4026;43.652;24.906;2023-02-03T00:04:21;99345.41;;;0.61;100.00
7962;BME280;4026;43.652;24.906;2023-02-03T00:06:48;99348.91;;;0.56;100.00
7962;BME280;4026;43.652;24.906;2023-02-03T00:09:15;99339.88;;;0.49;100.00
7962;BME280;4026;43.652;24.906;2023-02-03T00:11:44;99341.81;;;0.39;100.00
7962;BME280;4026;43.652;24.906;2023-02-03T00:14:11;99345.19;;;0.38;100.00
7962;BME280;4026;43.652;24.906;2023-02-03T00:16:38;99340.19;;;0.38;100.00
7962;BME280;4026;43.652;24.906;2023-02-03T00:19:05;99335.28;;;0.32;100.00
7962;BME280;4026;43.652;24.906;2023-02-03T00:21:31;99340.31;;;0.32;100.00
7962;BME280;4026;43.652;24.906;2023-02-03T00:23:58;99341.00;;;0.38;100.00
7962;BME280;4026;43.652;24.906;2023-02-03T00:26:25;99344.28;;;0.40;100.00
7962;BME280;4026;43.652;24.906;2023-02-03T00:28:54;99349.09;;;0.48;100.00
7962;BME280;4026;43.652;24.906;2023-02-03T00:31:23;99340.66;;;0.51;100.00
7962;BME280;4026;43.652;24.906;2023-02-03T00:33:53;99347.25;;;0.55;100.00
7962;BME280;4026;43.652;24.906;2023-02-03T00:36:20;99341.97;;;0.64;100.00
7962;BME280;4026;43.652;24.906;2023-02-03T00:38:47;99341.13;;;0.63;100.00
7962;BME280;4026;43.652;24.906;2023-02-03T00:41:14;99340.22;;;0.66;100.00
7962;BME280;4026;43.652;24.906;2023-02-03T00:43:41;99350.03;;;0.75;100.00
7962;BME280;4026;43.652;24.906;2023-02-03T00:46:09;99343.34;;;0.76;100.00
7962;BME280;4026;43.652;24.906;2023-02-03T00:48:36;99335.84;;;0.73;100.00
7962;BME280;4026;43.652;24.906;2023-02-03T00:51:04;99354.25;;;0.75;100.00
7962;BME280;4026;43.652;24.906;2023-02-03T00:53:31;99352.44;;;0.80;100.00
7962;BME280;4026;43.652;24.906;2023-02-03T00:55:58;99361.53;;;0.84;100.00
7962;BME280;4026;43.652;24.906;2023-02-03T00:58:24;99362.97;;;0.93;100.00
7962;BME280;4026;43.652;24.906;2023-02-03T01:00:53;99372.03;;;0.98;100.00
7962;BME280;4026;43.652;24.906;2023-02-03T01:03:22;99368.59;;;1.02;100.00
7962;BME280;4026;43.652;24.906;2023-02-03T01:05:48;99363.50;;;1.04;100.00
7962;BME280;4026;43.652;24.906;2023-02-03T01:08:15;99364.97;;;1.11;100.00
7962;BME280;4026;43.652;24.906;2023-02-03T01:10:42;99361.41;;;1.18;100.00
7962;BME280;4026;43.652;24.906;2023-02-03T01:13:09;99360.44;;;1.22;100.00
7962;BME280;4026;43.652;24.906;2023-02-03T01:15:36;99376.28;;;1.26;100.00
7962;BME280;4026;43.652;24.906;2023-02-03T01:18:03;99372.97;;;1.24;100.00
7962;BME280;4026;43.652;24.906;2023-02-03T01:20:31;99366.97;;;1.28;100.00
7962;BME280;4026;43.652;24.906;2023-02-03T01:22:58;99376.00;;;1.35;100.00
7962;BME280;4026;43.652;24.906;2023-02-03T01:25:25;99373.53;;;1.33;100.00
7962;BME280;4026;43.652;24.906;2023-02-03T01:27:52;99377.03;;;1.29;100.00
7962;BME280;4026;43.652;24.906;2023-02-03T01:30:19;99375.91;;;1.38;100.00
7962;BME280;4026;43.652;24.906;2023-02-03T01:32:45;99370.00;;;1.39;100.00
7962;BME280;4026;43.652;24.906;2023-02-03T01:35:12;99374.75;;;1.48;100.00
7962;BME280;4026;43.652;24.906;2023-02-03T01:37:41;99378.75;;;1.55;100.00
7962;BME280;4026;43.652;24.906;2023-02-03T01:40:09;99370.81;;;1.68;100.00
7962;BME280;4026;43.652;24.906;2023-02-03T01:42:36;99378.47;;;1.65;100.00
7962;BME280;4026;43.652;24.906;2023-02-03T01:45:03;99373.84;;;1.77;100.00
7962;BME280;4026;43.652;24.906;2023-02-03T01:47:33;99376.34;;;1.79;100.00
7962;BME280;4026;43.652;24.906;2023-02-03T01:50:10;99380.78;;;1.71;100.00
7962;BME280;4026;43.652;24.906;2023-02-03T01:52:42;99375.00;;;1.69;100.00
7962;BME280;4026;43.652;24.906;2023-02-03T01:55:12;99387.66;;;1.66;100.00
7962;BME280;4026;43.652;24.906;2023-02-03T01:57:43;99381.03;;;1.63;100.00
7962;BME280;4026;43.652;24.906;2023-02-03T02:00:13;99380.38;;;1.56;100.00
7962;BME280;4026;43.652;24.906;2023-02-03T02:02:41;99373.72;;;1.55;100.00
7962;BME280;4026;43.652;24.906;2023-02-03T02:05:14;99376.91;;;1.61;100.00
7962;BME280;4026;43.652;24.906;2023-02-03T02:07:45;99374.44;;;1.59;100.00
7962;BME280;4026;43.652;24.906;2023-02-03T02:10:13;99376.25;;;1.54;100.00
7962;BME280;4026;43.652;24.906;2023-02-03T02:12:40;99378.94;;;1.49;100.00
7962;BME280;4026;43.652;24.906;2023-02-03T02:15:08;99379.75;;;1.50;100.00
7962;BME280;4026;43.652;24.906;2023-02-03T02:17:55;99382.31;;;1.48;100.00
7962;BME280;4026;43.652;24.906;2023-02-03T02:20:35;99381.28;;;1.55;100.00
7962;BME280;4026;43.652;24.906;2023-02-03T02:32:13;99391.44;;;1.52;100.00
7962;BME280;4026;43.652;24.906;2023-02-03T02:34:51;99391.47;;;1.51;100.00
7962;BME280;4026;43.652;24.906;2023-02-03T02:37:29;99385.63;;;1.50;100.00
7962;BME280;4026;43.652;24.906;2023-02-03T02:40:08;99382.31;;;1.48;100.00
7962;BME280;4026;43.652;24.906;2023-02-03T02:42:43;99386.50;;;1.49;100.00
7962;BME280;4026;43.652;24.906;2023-02-03T02:45:23;99388.94;;;1.52;100.00
7962;BME280;4026;43.652;24.906;2023-02-03T02:47:56;99389.66;;;1.56;100.00
7962;BME280;4026;43.652;24.906;2023-02-03T02:50:30;99387.34;;;1.48;100.00
7962;BME280;4026;43.652;24.906;2023-02-03T02:52:59;99395.78;;;1.47;100.00
7962;BME280;4026;43.652;24.906;2023-02-03T02:55:29;99395.59;;;1.53;100.00
7962;BME280;4026;43.652;24.906;2023-02-03T02:58:01;99397.28;;;1.54;100.00
7962;BME280;4026;43.652;24.906;2023-02-03T03:00:29;99390.75;;;1.47;100.00
7962;BME280;4026;43.652;24.906;2023-02-03T03:03:09;99392.38;;;1.48;100.00
7962;BME280;4026;43.652;24.906;2023-02-03T03:05:38;99394.97;;;1.47;100.00
7962;BME280;4026;43.652;24.906;2023-02-03T03:08:09;99394.25;;;1.43;100.00
7962;BME280;4026;43.652;24.906;2023-02-03T03:10:40;99390.94;;;1.41;100.00
7962;BME280;4026;43.652;24.906;2023-02-03T03:13:12;99399.56;;;1.34;100.00
7962;BME280;4026;43.652;24.906;2023-02-03T03:15:40;99406.50;;;1.26;100.00
7962;BME280;4026;43.652;24.906;2023-02-03T03:18:13;99409.88;;;1.25;100.00
7962;BME280;4026;43.652;24.906;2023-02-03T03:20:43;99413.09;;;1.30;100.00
7962;BME280;4026;43.652;24.906;2023-02-03T03:23:29;99424.84;;;1.31;100.00
7962;BME280;4026;43.652;24.906;2023-02-03T03:26:03;99423.72;;;1.40;100.00
7962;BME280;4026;43.652;24.906;2023-02-03T03:28:39;99421.16;;;1.41;100.00
7962;BME280;4026;43.652;24.906;2023-02-03T03:31:08;99434.75;;;1.37;100.00
7962;BME280;4026;43.652;24.906;2023-02-03T03:33:36;99429.69;;;1.37;100.00
7962;BME280;4026;43.652;24.906;2023-02-03T03:36:08;99441.34;;;1.40;100.00
7962;BME280;4026;43.652;24.906;2023-02-03T03:38:40;99439.69;;;1.40;100.00
7962;BME280;4026;43.652;24.906;2023-02-03T03:41:14;99442.19;;;1.40;100.00
7962;BME280;4026;43.652;24.906;2023-02-03T03:43:46;99443.06;;;1.39;100.00
7962;BME280;4026;43.652;24.906;2023-02-03T03:46:17;99446.53;;;1.35;100.00
7962;BME280;4026;43.652;24.906;2023-02-03T03:48:50;99454.88;;;1.37;100.00
7962;BME280;4026;43.652;24.906;2023-02-03T03:51:23;99453.03;;;1.42;100.00
7962;BME280;4026;43.652;24.906;2023-02-03T03:53:53;99451.31;;;1.44;100.00
7962;BME280;4026;43.652;24.906;2023-02-03T03:56:26;99459.75;;;1.43;100.00
7962;BME280;4026;43.652;24.906;2023-02-03T03:58:56;99449.50;;;1.49;100.00
7962;BME280;4026;43.652;24.906;2023-02-03T04:01:25;99445.28;;;1.50;100.00
7962;BME280;4026;43.652;24.906;2023-02-03T04:03:56;99448.75;;;1.46;100.00
7962;BME280;4026;43.652;24.906;2023-02-03T04:06:24;99461.28;;;1.47;100.00
7962;BME280;4026;43.652;24.906;2023-02-03T04:08:51;99470.59;;;1.45;100.00
7962;BME280;4026;43.652;24.906;2023-02-03T04:11:18;99471.38;;;1.47;100.00
7962;BME280;4026;43.652;24.906;2023-02-03T04:13:59;99471.38;;;1.47;100.00
7962;BME280;4026;43.652;24.906;2023-02-03T04:16:25;99480.81;;;1.41;100.00
7962;BME280;4026;43.652;24.906;2023-02-03T04:18:52;99478.50;;;1.33;100.00
7962;BME280;4026;43.652;24.906;2023-02-03T04:21:21;99475.03;;;1.37;100.00
7962;BME280;4026;43.652;24.906;2023-02-03T04:23:48;99482.78;;;1.31;100.00
7962;BME280;4026;43.652;24.906;2023-02-03T04:26:15;99483.00;;;1.22;100.00
7962;BME280;4026;43.652;24.906;2023-02-03T04:28:42;99487.97;;;1.25;100.00
7962;BME280;4026;43.652;24.906;2023-02-03T04:31:09;99495.59;;;1.22;100.00
7962;BME280;4026;43.652;24.906;2023-02-03T04:33:36;99494.06;;;1.16;100.00
7962;BME280;4026;43.652;24.906;2023-02-03T04:36:03;99497.53;;;1.13;100.00
7962;BME280;4026;43.652;24.906;2023-02-03T04:38:32;99505.09;;;1.12;100.00
7962;BME280;4026;43.652;24.906;2023-02-03T04:40:58;99510.16;;;1.12;100.00
7962;BME280;4026;43.652;24.906;2023-02-03T04:43:25;99506.09;;;1.06;100.00
7962;BME280;4026;43.652;24.906;2023-02-03T04:45:52;99506.25;;;1.00;100.00
7962;BME280;4026;43.652;24.906;2023-02-03T04:48:19;99510.25;;;1.07;100.00
7962;BME280;4026;43.652;24.906;2023-02-03T04:50:46;99512.84;;;1.04;100.00
7962;BME280;4026;43.652;24.906;2023-02-03T04:53:13;99517.00;;;1.07;100.00
7962;BME280;4026;43.652;24.906;2023-02-03T04:55:41;99513.53;;;1.11;100.00
7962;BME280;4026;43.652;24.906;2023-02-03T04:58:11;99511.88;;;1.10;100.00
7962;BME280;4026;43.652;24.906;2023-02-03T05:00:38;99515.09;;;1.15;100.00
7962;BME280;4026;43.652;24.906;2023-02-03T05:03:05;99519.16;;;1.21;100.00
7962;BME280;4026;43.652;24.906;2023-02-03T05:05:32;99532.44;;;1.26;100.00
7962;BME280;4026;43.652;24.906;2023-02-03T05:07:58;99530.84;;;1.22;100.00
7962;BME280;4026;43.652;24.906;2023-02-03T05:10:25;99538.47;;;1.20;100.00
7962;BME280;4026;43.652;24.906;2023-02-03T05:12:54;99533.34;;;1.23;100.00
7962;BME280;4026;43.652;24.906;2023-02-03T05:15:20;99541.09;;;1.16;100.00
7962;BME280;4026;43.652;24.906;2023-02-03T05:17:47;99544.22;;;1.25;100.00
7962;BME280;4026;43.652;24.906;2023-02-03T05:20:17;99545.16;;;1.21;100.00
7962;BME280;4026;43.652;24.906;2023-02-03T05:22:43;99556.03;;;1.22;100.00
7962;BME280;4026;43.652;24.906;2023-02-03T05:25:10;99555.31;;;1.18;100.00
7962;BME280;4026;43.652;24.906;2023-02-03T05:27:37;99559.59;;;1.15;100.00
7962;BME280;4026;43.652;24.906;2023-02-03T05:30:08;99564.50;;;1.19;100.00
7962;BME280;4026;43.652;24.906;2023-02-03T05:32:35;99567.97;;;1.17;100.00
7962;BME280;4026;43.652;24.906;2023-02-03T05:35:02;99574.78;;;1.11;100.00
7962;BME280;4026;43.652;24.906;2023-02-03T05:37:28;99577.41;;;1.08;100.00
7962;BME280;4026;43.652;24.906;2023-02-03T05:39:55;99586.59;;;1.09;100.00
7962;BME280;4026;43.652;24.906;2023-02-03T05:42:46;99583.06;;;1.17;100.00
7962;BME280;4026;43.652;24.906;2023-02-03T05:45:14;99587.31;;;1.15;100.00
7962;BME280;4026;43.652;24.906;2023-02-03T05:47:41;99594.03;;;1.14;100.00
7962;BME280;4026;43.652;24.906;2023-02-03T05:50:08;99593.88;;;1.20;100.00
7962;BME280;4026;43.652;24.906;2023-02-03T05:52:35;99604.06;;;1.16;100.00
7962;BME280;4026;43.652;24.906;2023-02-03T05:55:02;99603.22;;;1.17;100.00
7962;BME280;4026;43.652;24.906;2023-02-03T05:57:29;99593.06;;;1.20;100.00
7962;BME280;4026;43.652;24.906;2023-02-03T05:59:56;99597.94;;;1.26;100.00
7962;BME280;4026;43.652;24.906;2023-02-03T06:02:24;99596.13;;;1.31;100.00
7962;BME280;4026;43.652;24.906;2023-02-03T06:04:51;99598.50;;;1.35;100.00
7962;BME280;4026;43.652;24.906;2023-02-03T06:07:18;99597.59;;;1.38;100.00
7962;BME280;4026;43.652;24.906;2023-02-03T06:09:45;99608.31;;;1.46;100.00
7962;BME280;4026;43.652;24.906;2023-02-03T06:12:12;99614.81;;;1.53;100.00
7962;BME280;4026;43.652;24.906;2023-02-03T06:14:38;99618.03;;;1.60;100.00
7962;BME280;4026;43.652;24.906;2023-02-03T06:17:05;99622.03;;;1.67;100.00
7962;BME280;4026;43.652;24.906;2023-02-03T06:19:33;99613.75;;;1.62;100.00
7962;BME280;4026;43.652;24.906;2023-02-03T06:22:00;99616.94;;;1.69;100.00
7962;BME280;4026;43.652;24.906;2023-02-03T06:24:27;99616.94;;;1.69;100.00
7962;BME280;4026;43.652;24.906;2023-02-03T06:26:54;99618.59;;;1.70;100.00
7962;BME280;4026;43.652;24.906;2023-02-03T06:29:21;99619.63;;;1.63;100.00
7962;BME280;4026;43.652;24.906;2023-02-03T06:31:48;99626.50;;;1.57;100.00
7962;BME280;4026;43.652;24.906;2023-02-03T06:34:15;99627.44;;;1.53;100.00
7962;BME280;4026;43.652;24.906;2023-02-03T06:36:43;99644.22;;;1.54;100.00
7962;BME280;4026;43.652;24.906;2023-02-03T06:39:10;99649.00;;;1.64;100.00
7962;BME280;4026;43.652;24.906;2023-02-03T06:41:36;99642.38;;;1.59;100.00
7962;BME280;4026;43.652;24.906;2023-02-03T06:44:03;99649.84;;;1.64;100.00
7962;BME280;4026;43.652;24.906;2023-02-03T06:46:30;99653.88;;;1.70;100.00
7962;BME280;4026;43.652;24.906;2023-02-03T06:48:58;99665.44;;;1.77;100.00
7962;BME280;4026;43.652;24.906;2023-02-03T06:51:25;99667.13;;;1.78;100.00
7962;BME280;4026;43.652;24.906;2023-02-03T06:53:53;99672.84;;;1.83;100.00
7962;BME280;4026;43.652;24.906;2023-02-03T06:56:21;99668.13;;;1.71;100.00
7962;BME280;4026;43.652;24.906;2023-02-03T06:58:48;99677.50;;;1.66;100.00
7962;BME280;4026;43.652;24.906;2023-02-03T07:01:15;99676.91;;;1.56;100.00
7962;BME280;4026;43.652;24.906;2023-02-03T07:03:42;99688.53;;;1.62;100.00
7962;BME280;4026;43.652;24.906;2023-02-03T07:06:08;99681.06;;;1.58;100.00
7962;BME280;4026;43.652;24.906;2023-02-03T07:08:35;99685.53;;;1.80;100.00
7962;BME280;4026;43.652;24.906;2023-02-03T07:11:04;99683.97;;;1.76;100.00
7962;BME280;4026;43.652;24.906;2023-02-03T07:13:31;99695.13;;;1.98;100.00
7962;BME280;4026;43.652;24.906;2023-02-03T07:15:57;99694.50;;;2.21;100.00
7962;BME280;4026;43.652;24.906;2023-02-03T07:18:24;99687.94;;;2.44;100.00
7962;BME280;4026;43.652;24.906;2023-02-03T07:20:51;99699.03;;;2.38;100.00
7962;BME280;4026;43.652;24.906;2023-02-03T07:23:18;99707.50;;;2.06;100.00
7962;BME280;4026;43.652;24.906;2023-02-03T07:25:45;99717.75;;;2.01;100.00
7962;BME280;4026;43.652;24.906;2023-02-03T07:28:14;99717.19;;;1.90;100.00
7962;BME280;4026;43.652;24.906;2023-02-03T07:30:40;99715.38;;;1.95;100.00
7962;BME280;4026;43.652;24.906;2023-02-03T07:33:07;99706.22;;;1.93;100.00
7962;BME280;4026;43.652;24.906;2023-02-03T07:35:34;99717.66;;;2.04;100.00
7962;BME280;4026;43.652;24.906;2023-02-03T07:38:01;99719.31;;;2.06;100.00
7962;BME280;4026;43.652;24.906;2023-02-03T07:40:28;99710.13;;;2.33;100.00
7962;BME280;4026;43.652;24.906;2023-02-03T07:42:55;99722.28;;;2.78;100.00
7962;BME280;4026;43.652;24.906;2023-02-03T07:45:23;99719.72;;;3.59;100.00
7962;BME280;4026;43.652;24.906;2023-02-03T07:47:50;99725.28;;;4.17;100.00
7962;BME280;4026;43.652;24.906;2023-02-03T07:50:17;99721.59;;;4.26;100.00
7962;BME280;4026;43.652;24.906;2023-02-03T07:52:44;99729.19;;;4.26;100.00
7962;BME280;4026;43.652;24.906;2023-02-03T07:55:11;99726.72;;;4.24;100.00
7962;BME280;4026;43.652;24.906;2023-02-03T07:57:37;99732.53;;;4.50;100.00
7962;BME280;4026;43.652;24.906;2023-02-03T08:00:09;99735.06;;;4.50;100.00
7962;BME280;4026;43.652;24.906;2023-02-03T08:02:37;99740.50;;;4.85;100.00
7962;BME280;4026;43.652;24.906;2023-02-03T08:05:04;99733.38;;;4.72;100.00
7962;BME280;4026;43.652;24.906;2023-02-03T08:07:31;99736.28;;;4.63;100.00
7962;BME280;4026;43.652;24.906;2023-02-03T08:09:58;99732.66;;;4.47;100.00
7962;BME280;4026;43.652;24.906;2023-02-03T08:12:25;99739.34;;;4.01;100.00
7962;BME280;4026;43.652;24.906;2023-02-03T08:14:52;99742.88;;;3.97;100.00
7962;BME280;4026;43.652;24.906;2023-02-03T08:17:19;99733.66;;;4.19;100.00
7962;BME280;4026;43.652;24.906;2023-02-03T08:19:47;99745.69;;;4.60;100.00
7962;BME280;4026;43.652;24.906;2023-02-03T08:22:14;99748.59;;;5.16;100.00
7962;BME280;4026;43.652;24.906;2023-02-03T08:24:41;99744.47;;;5.56;100.00
7962;BME280;4026;43.652;24.906;2023-02-03T08:27:10;99750.91;;;5.84;100.00
7962;BME280;4026;43.652;24.906;2023-02-03T08:29:38;99755.94;;;6.25;99.70
7962;BME280;4026;43.652;24.906;2023-02-03T08:32:08;99756.13;;;6.01;99.60
7962;BME280;4026;43.652;24.906;2023-02-03T08:34:35;99755.50;;;6.35;97.93
7962;BME280;4026;43.652;24.906;2023-02-03T08:37:03;99764.44;;;6.99;96.75
7962;BME280;4026;43.652;24.906;2023-02-03T08:39:30;99775.72;;;6.18;95.41
7962;BME280;4026;43.652;24.906;2023-02-03T08:41:57;99768.03;;;5.79;100.00
7962;BME280;4026;43.652;24.906;2023-02-03T08:44:24;99773.19;;;5.98;100.00
7962;BME280;4026;43.652;24.906;2023-02-03T08:46:52;99775.22;;;6.49;97.24
7962;BME280;4026;43.652;24.906;2023-02-03T08:49:19;99771.06;;;6.66;95.32
7962;BME280;4026;43.652;24.906;2023-02-03T08:51:47;99768.00;;;6.78;95.75
7962;BME280;4026;43.652;24.906;2023-02-03T08:54:15;99775.28;;;7.22;92.13
7962;BME280;4026;43.652;24.906;2023-02-03T08:56:42;99770.91;;;7.24;90.27
7962;BME280;4026;43.652;24.906;2023-02-03T08:59:09;99773.94;;;7.49;89.17
7962;BME280;4026;43.652;24.906;2023-02-03T09:01:36;99778.72;;;7.38;88.05
7962;BME280;4026;43.652;24.906;2023-02-03T09:04:05;99770.50;;;6.97;89.66
7962;BME280;4026;43.652;24.906;2023-02-03T09:06:33;99782.72;;;7.08;90.40
7962;BME280;4026;43.652;24.906;2023-02-03T09:09:00;99780.69;;;7.51;87.06
7962;BME280;4026;43.652;24.906;2023-02-03T09:11:29;99772.75;;;7.39;87.23
7962;BME280;4026;43.652;24.906;2023-02-03T09:13:56;99781.22;;;7.57;87.42
7962;BME280;4026;43.652;24.906;2023-02-03T09:16:23;99783.00;;;7.72;86.60
7962;BME280;4026;43.652;24.906;2023-02-03T09:18:51;99786.31;;;7.21;86.30
7962;BME280;4026;43.652;24.906;2023-02-03T09:21:17;99789.16;;;7.15;88.81
7962;BME280;4026;43.652;24.906;2023-02-03T09:23:44;99791.44;;;7.38;87.76
7962;BME280;4026;43.652;24.906;2023-02-03T09:26:13;99790.09;;;7.83;85.52
7962;BME280;4026;43.652;24.906;2023-02-03T09:28:42;99788.06;;;8.41;83.62
7962;BME280;4026;43.652;24.906;2023-02-03T09:31:11;99783.31;;;8.50;80.84
7962;BME280;4026;43.652;24.906;2023-02-03T09:33:38;99783.13;;;8.04;80.68
7962;BME280;4026;43.652;24.906;2023-02-03T09:36:06;99788.88;;;7.21;83.87
7962;BME280;4026;43.652;24.906;2023-02-03T09:38:34;99782.34;;;6.79;85.87
7962;BME280;4026;43.652;24.906;2023-02-03T09:41:04;99784.25;;;6.36;88.31
7962;BME280;4026;43.652;24.906;2023-02-03T09:43:36;99789.06;;;6.80;86.68
7962;BME280;4026;43.652;24.906;2023-02-03T09:46:12;99780.16;;;6.13;88.94
7962;BME280;4026;43.652;24.906;2023-02-03T09:48:43;99775.72;;;5.77;91.42
7962;BME280;4026;43.652;24.906;2023-02-03T09:51:18;99772.53;;;5.72;93.15
7962;BME280;4026;43.652;24.906;2023-02-03T09:53:50;99766.34;;;6.39;91.05
7962;BME280;4026;43.652;24.906;2023-02-03T09:56:26;99767.75;;;7.01;89.71
7962;BME280;4026;43.652;24.906;2023-02-03T09:58:54;99762.41;;;7.77;85.13
7962;BME280;4026;43.652;24.906;2023-02-03T10:01:24;99749.00;;;7.56;84.70
7962;BME280;4026;43.652;24.906;2023-02-03T10:03:58;99753.91;;;8.45;83.54
7962;BME280;4026;43.652;24.906;2023-02-03T10:06:32;99750.69;;;8.89;81.39
7962;BME280;4026;43.652;24.906;2023-02-03T10:09:21;99755.34;;;8.49;77.75
7962;BME280;4026;43.652;24.906;2023-02-03T10:12:14;99752.09;;;8.63;78.79
7962;BME280;4026;43.652;24.906;2023-02-03T10:15:05;99746.63;;;9.16;76.08
7962;BME280;4026;43.652;24.906;2023-02-03T10:17:46;99734.66;;;9.47;75.62
7962;BME280;4026;43.652;24.906;2023-02-03T10:20:17;99725.47;;;9.59;74.95
7962;BME280;4026;43.652;24.906;2023-02-03T10:22:49;99728.13;;;9.71;74.09
7962;BME280;4026;43.652;24.906;2023-02-03T10:25:19;99728.44;;;9.95;72.65
7962;BME280;4026;43.652;24.906;2023-02-03T10:27:50;99731.03;;;9.21;72.80
7962;BME280;4026;43.652;24.906;2023-02-03T10:30:22;99728.81;;;8.84;73.93
7962;BME280;4026;43.652;24.906;2023-02-03T10:32:53;99720.25;;;8.05;73.68
7962;BME280;4026;43.652;24.906;2023-02-03T10:35:25;99726.50;;;7.31;79.09
7962;BME280;4026;43.652;24.906;2023-02-03T10:37:56;99726.13;;;7.39;79.73
7962;BME280;4026;43.652;24.906;2023-02-03T10:40:25;99717.13;;;7.14;79.56
7962;BME280;4026;43.652;24.906;2023-02-03T10:42:54;99710.13;;;7.54;81.08
7962;BME280;4026;43.652;24.906;2023-02-03T10:45:39;99709.44;;;7.51;77.61
7962;BME280;4026;43.652;24.906;2023-02-03T10:48:12;99723.25;;;8.13;78.28
7962;BME280;4026;43.652;24.906;2023-02-03T10:50:44;99712.78;;;8.51;76.95
7962;BME280;4026;43.652;24.906;2023-02-03T10:53:22;99714.75;;;8.93;74.33
7962;BME280;4026;43.652;24.906;2023-02-03T10:55:50;99713.94;;;8.61;73.58
7962;BME280;4026;43.652;24.906;2023-02-03T10:58:24;99704.59;;;9.22;74.95
7962;BME280;4026;43.652;24.906;2023-02-03T11:00:54;99701.59;;;9.15;71.05
7962;BME280;4026;43.652;24.906;2023-02-03T11:03:25;99696.72;;;8.96;72.79
7962;BME280;4026;43.652;24.906;2023-02-03T11:06:05;99693.88;;;8.71;73.84
7962;BME280;4026;43.652;24.906;2023-02-03T11:08:33;99687.91;;;8.86;72.06
7962;BME280;4026;43.652;24.906;2023-02-03T11:11:04;99687.91;;;8.86;73.38
7962;BME280;4026;43.652;24.906;2023-02-03T11:13:32;99681.75;;;8.90;71.36
7962;BME280;4026;43.652;24.906;2023-02-03T11:16:00;99683.00;;;9.13;72.07
7962;BME280;4026;43.652;24.906;2023-02-03T11:18:39;99680.53;;;8.81;70.90
7962;BME280;4026;43.652;24.906;2023-02-03T11:21:13;99682.28;;;9.11;73.31
7962;BME280;4026;43.652;24.906;2023-02-03T11:23:55;99675.09;;;9.18;69.75
7962;BME280;4026;43.652;24.906;2023-02-03T11:26:25;99675.63;;;8.93;70.07
7962;BME280;4026;43.652;24.906;2023-02-03T11:28:56;99676.03;;;8.71;71.85
7962;BME280;4026;43.652;24.906;2023-02-03T11:31:25;99671.19;;;8.50;72.10
7962;BME280;4026;43.652;24.906;2023-02-03T11:33:57;99679.03;;;8.14;73.23
7962;BME280;4026;43.652;24.906;2023-02-03T11:36:26;99669.81;;;7.96;74.43
7962;BME280;4026;43.652;24.906;2023-02-03T11:39:18;99661.41;;;7.27;76.52
7962;BME280;4026;43.652;24.906;2023-02-03T11:41:46;99657.16;;;7.10;76.87
7962;BME280;4026;43.652;24.906;2023-02-03T11:44:18;99668.66;;;7.00;77.40
7962;BME280;4026;43.652;24.906;2023-02-03T11:46:48;99671.53;;;6.57;78.34
7962;BME280;4026;43.652;24.906;2023-02-03T11:49:33;99662.34;;;6.36;79.37
7962;BME280;4026;43.652;24.906;2023-02-03T11:52:15;99669.22;;;6.15;80.52
7962;BME280;4026;43.652;24.906;2023-02-03T11:54:57;99662.47;;;5.95;83.48
7962;BME280;4026;43.652;24.906;2023-02-03T11:57:37;99667.16;;;6.04;82.73
7962;BME280;4026;43.652;24.906;2023-02-03T12:00:17;99663.03;;;6.21;81.56
7962;BME280;4026;43.652;24.906;2023-02-03T12:06:03;99664.53;;;6.97;75.32
7962;BME280;4026;43.652;24.906;2023-02-03T12:08:51;99672.28;;;6.77;76.50
7962;BME280;4026;43.652;24.906;2023-02-03T12:11:33;99664.22;;;6.69;78.11
7962;BME280;4026;43.652;24.906;2023-02-03T12:14:13;99658.72;;;6.78;79.11
7962;BME280;4026;43.652;24.906;2023-02-03T12:17:00;99654.69;;;7.26;80.10
7962;BME280;4026;43.652;24.906;2023-02-03T12:19:40;99656.69;;;7.37;76.54
7962;BME280;4026;43.652;24.906;2023-02-03T12:22:17;99666.38;;;6.95;77.83
7962;BME280;4026;43.652;24.906;2023-02-03T12:24:53;99652.91;;;7.11;76.82
7962;BME280;4026;43.652;24.906;2023-02-03T12:27:32;99666.94;;;7.18;74.62
7962;BME280;4026;43.652;24.906;2023-02-03T12:30:04;99660.78;;;6.70;73.90
7962;BME280;4026;43.652;24.906;2023-02-03T12:32:37;99659.47;;;6.25;75.32
7962;BME280;4026;43.652;24.906;2023-02-03T12:35:14;99656.00;;;6.64;76.12
7962;BME280;4026;43.652;24.906;2023-02-03T12:37:47;99654.72;;;6.55;76.33
7962;BME280;4026;43.652;24.906;2023-02-03T12:40:19;99658.28;;;6.87;77.33
7962;BME280;4026;43.652;24.906;2023-02-03T12:42:53;99640.19;;;7.28;76.10
7962;BME280;4026;43.652;24.906;2023-02-03T12:45:24;99629.56;;;6.85;74.93
7962;BME280;4026;43.652;24.906;2023-02-03T12:47:55;99636.72;;;6.77;79.33
7962;BME280;4026;43.652;24.906;2023-02-03T12:50:29;99639.38;;;6.56;76.50
7962;BME280;4026;43.652;24.906;2023-02-03T12:53:01;99635.38;;;6.70;74.14
7962;BME280;4026;43.652;24.906;2023-02-03T12:55:34;99630.44;;;6.67;73.86
7962;BME280;4026;43.652;24.906;2023-02-03T12:58:05;99633.72;;;6.69;71.38
7962;BME280;4026;43.652;24.906;2023-02-03T13:00:40;99638.03;;;6.49;72.17
7962;BME280;4026;43.652;24.906;2023-02-03T13:03:15;99627.22;;;6.27;73.28
7962;BME280;4026;43.652;24.906;2023-02-03T13:05:48;99622.69;;;5.96;75.78
7962;BME280;4026;43.652;24.906;2023-02-03T13:08:24;99623.03;;;5.88;75.76
7962;BME280;4026;43.652;24.906;2023-02-03T13:10:58;99618.31;;;5.60;73.16
7962;BME280;4026;43.652;24.906;2023-02-03T13:13:34;99621.81;;;5.57;76.03
7962;BME280;4026;43.652;24.906;2023-02-03T13:16:06;99613.34;;;5.96;75.27
7962;BME280;4026;43.652;24.906;2023-02-03T13:18:36;99612.97;;;6.05;73.39
7962;BME280;4026;43.652;24.906;2023-02-03T13:21:04;99619.63;;;5.68;73.37
7962;BME280;4026;43.652;24.906;2023-02-03T13:23:32;99613.31;;;5.58;74.28
7962;BME280;4026;43.652;24.906;2023-02-03T13:26:19;99610.78;;;5.38;75.92
7962;BME280;4026;43.652;24.906;2023-02-03T13:29:00;99609.69;;;5.25;74.58
7962;BME280;4026;43.652;24.906;2023-02-03T13:31:41;99608.13;;;5.41;72.22
7962;BME280;4026;43.652;24.906;2023-02-03T13:34:26;99623.94;;;5.27;72.14
7962;BME280;4026;43.652;24.906;2023-02-03T13:37:25;99614.22;;;5.37;72.75
7962;BME280;4026;43.652;24.906;2023-02-03T13:40:19;99617.66;;;5.36;71.19
7962;BME280;4026;43.652;24.906;2023-02-03T13:42:56;99617.78;;;5.33;70.52
7962;BME280;4026;43.652;24.906;2023-02-03T13:45:26;99629.44;;;5.37;72.04